Résultats

6.5KM - BAILLI DE SUFFREN. Édition 2016.

10 Km
20/11/2016 à 10:00:00 - St Cannat (13)
136 arrivant(e)s.


 
Les autres classements de cet évènement




Place▲ Temps Dossard Nom Prenom Categ #Categ Sexe #Sexe Club Vit Moy Diplôme Partager
1 00:24:03 1273 DURY DAVID M1M 1 M 1 17.21
2 00:24:14 1364 RICHET PIERRE-ANTOINE SEM 1 M 2 AIX ATHLE PROVENCE 17.08
3 00:24:52 1372 BEECKMANS JEAN-CHRISTOPHE SEM 2 M 3 S/L OLYMPIQUE DE MARSEILLE ATH 16.65
4 00:25:50 1370 DE-CHAVIGNY CRISTOPHE M1M 2 M 4 COURIR A MEYREUIL 16.03
5 00:25:56 1349 VILLERMY LIONEL SEM 3 M 5 AC ROGNONAS 15.96
6 00:26:44 1394 RIGAUD JULIEN SEM 4 M 6 FOULEE DE GREASQUE 15.49
7 00:27:34 1365 MITELMAN BORIS M2M 1 M 7 OLYMPIQUE CABRIES CALAS 15.02
8 00:27:53 1353 ROSSI FREDERIC SEM 5 M 8 14.85
9 00:27:56 1046 AUTHESSERRE ARNAUD SEM 6 M 9 ECOS EGUILLES 14.82
10 00:28:05 1286 GRIFFET LIONEL M1M 3 M 10 ROGNAC AC 14.74
11 00:28:07 1360 BARBIER ROMAIN SEM 7 M 11 14.72
12 00:28:13 1269 DI-FALCO CHRISTIAN M2M 2 M 12 ROGNAC ATHLETIC CLUB 14.67
13 00:28:19 1352 VILLERMY PATRICK M2M 3 M 13 AC ST REMY DE PROVENCE 14.62
14 00:28:21 1281 GAUBERT MARC M2M 4 M 14 SPEEDY CLUB DE PROVENCE 14.60
15 00:28:28 1315 PELLETANT PATRICK M2M 5 M 15 KM 42.195 MARSEILLE 14.54
16 00:28:36 1314 PASCUAL PHILIPPE M2M 6 M 16 14.48
17 00:28:53 1385 DALIGAUD LUKAS MIM 1 M 17 TRIATHL'AIX 14.33
18 00:29:37 1362 MARIANI VINCENT SEM 8 M 18 13.98
19 00:29:45 1284 GOUGEON-FRANGEUL HUGO M1M 4 M 19 AIX ATHLE PROVENCE 13.92
20 00:30:00 1260 CARE-AULANIER JEROME SEM 9 M 20 ATSCAF ST VICTORET 13.80
21 00:30:01 1384 DALIGAUD PATRICE M1M 5 M 21 FREHEL CAP 13.79
22 00:30:04 1368 ROSA MARC M2M 7 M 22 TEAM 12-13 13.77
23 00:30:18 1380 LAUGIER JULIEN JUM 1 M 23 13.66
24 00:30:53 1359 MARTIN LUCAS M3M 1 M 24 EP MANOSQUE 13.41
25 00:30:55 1395 BLANC ANTONY MIM 2 M 25 TRIATHL'AIX 13.39
26 00:30:57 1367 CHAVE CHRISTOPHE M1M 6 M 26 USC SEPTEMES 13.38
27 00:31:33 1310 NOAILLES ALEXANDRE JUM 2 M 27 13.12
28 00:31:47 1350 SUPPO-VILLERMY EMILIE SEF 1 F 1 AC ST REMY DE PROVENCE 13.03
29 00:32:03 1302 MAGNIN EMMANUEL M2M 8 M 28 12.92
30 00:32:17 1378 MEVEL STEPHANE M3M 2 M 29 LES FOULEES PELISSANNAISES 12.82
31 00:32:19 1303 MANI MALIKA M2F 1 F 2 KMS 12.81
32 00:33:10 1345 PAULAY GILBERT M4M 1 M 30 12.48
33 00:33:23 1271 DUFOUR NOLWENN CAF 1 F 3 CA PROPRIANO 12.40
34 00:33:24 1280 FUGIER PASCAL SEM 10 M 31 12.40
35 00:33:33 1321 ROMISCH LIONEL M1M 7 M 32 12.34
36 00:33:41 1299 LEBELLEGARD THIBAUT SEM 11 M 33 FOS OLYMPIQUES CLUB 12.29
37 00:33:45 1313 PANTANI THIERRY M1M 8 M 34 AIX ATHLE PROVENCE 12.27
38 00:34:05 1295 KOPF ALAIN M2M 9 M 35 12.15
39 00:34:24 1397 NOUGUIER CARINE M1F 1 F 4 12.03
40 00:34:47 1256 BRECHEMIER LUC M2M 10 M 36 M.A IDEX 11.90
41 00:34:48 1290 GUIGUES FABRICE SEM 12 M 37 11.90
42 00:34:57 1279 FORNELLA LAURENT M1M 9 M 38 ROQUE RUNNING 11.85
43 00:35:11 1358 GATTULO JEAN-PAUL M3M 3 M 39 COURIR A MEYREUIL 11.77
44 00:35:18 1283 GONZALEZ ANDRE M3M 4 M 40 CSPCG 13 11.73
45 00:35:23 1298 LAMOURI AZEDINE M2M 11 M 41 ATSCAF 13 ST VICTORET 11.70
46 00:35:38 1374 BENE ENZO JUM 3 M 42 11.62
47 00:35:49 1297 LA-MOTTA NADEGE SEF 2 F 5 11.56
48 00:35:51 1319 RENAUD CHRISTOPHE SEM 13 M 43 11.55
49 00:36:01 1278 FORNELLA CAROLE M1F 2 F 6 ROQUE RUNNING 11.49
50 00:36:11 1348 COUVREUR NADINE SEF 3 F 7 11.44
51 00:36:18 1356 ONIER FRANCOISE M1F 3 F 8 AIX ATHLE PROVENCE 11.40
52 00:36:23 1328 SCHARF PHILIPPE M2M 12 M 44 DES PIEDS GENDARMERIE MARSEILLE 11.38
53 00:36:43 1354 PHILIPPE LEA SEF 4 F 9 11.28
54 00:36:46 1391 SCHNEIDER JEAN SEM 14 M 45 11.26
55 00:37:25 1318 POUENAT SEBASTIEN M1M 10 M 46 11.06
56 00:37:35 1336 FRANCOULON ANTOINE SEM 15 M 47 11.02
57 00:37:51 1334 TORNATO LAETITIA M1F 4 F 10 10.94
58 00:38:11 1306 MERCURIO LAURENCE SEF 5 F 11 10.84
59 00:38:24 1387 N:Anonyme 1387 P:Anonyme 1387 M1M 11 M 48 10.78
60 00:38:45 1373 RULCHIA RENE M4M 2 M 49 CLES GARDANNE 10.68
61 00:39:03 1351 VILLERMY MARIE-JOSE M2F 2 F 12 AC ST REMY DE PROVENCE 10.60
62 00:39:17 1323 ROS GREGORY M1M 12 M 50 10.54
63 00:39:19 1322 ROS CELINE M1F 5 F 13 10.53
64 00:39:25 1396 NOUGUIER MARGAUX CAF 2 F 14 10.50
65 00:39:41 1357 DEWAVRIN RODY M3M 5 M 51 AIX ATHLE PROVENCE 10.43
66 00:39:56 1327 SALERNO THOMAS SEM 16 M 52 POLE EMPLOI 10.37
67 00:39:56 1288 GUERIN ERINEE M2F 3 F 15 CSPCG 13 10.37
68 00:40:14 1308 MULATO ARNAUD SEM 17 M 53 AIX ATHLE PROVENCE 10.29
69 00:40:15 1309 MULATO BERNARD M3M 6 M 54 AIX ATHLE PROVENCE 10.29
70 00:40:18 1330 SILVERIO LIANO M3M 7 M 55 FOS OLYMPIQUE CLUB 10.27
71 00:40:21 1285 GOUVERNAIRE YSEULT M1F 6 F 16 SPEEDY CLUB DE PROVENCE 10.26
72 00:40:23 1255 BORSOI PATRICK M3M 8 M 56 ELAN LAMBESCAIN 10.25
73 00:40:44 1366 GRUNINGER ROBERT M5M 1 M 57 FOULEE SALONNAISE 10.16
74 00:40:54 1259 CAPDEVIELLE SYLVIE SEF 6 F 17 10.12
75 00:40:55 1398 COUROURIER ROMAIN SEM 18 M 58 10.12
76 00:41:08 1289 GUERIN MARC M3M 9 M 59 CSPCG 13 10.06
77 00:41:24 1268 DEREPPER CAROLINE SEF 7 F 18 10.00
78 00:41:28 1324 ROUVIER JEROME SEM 19 M 60 9.98
79 00:41:28 1270 DORNIER LYDIE SEF 8 F 19 9.98
80 00:41:29 1312 OMBROUCK VALERIE M1F 7 F 20 9.98
81 00:41:33 1361 SIRAND JEAN-VICTOR M4M 3 M 61 ELAN LAMBESCAIN 9.96
82 00:41:44 1343 DAHERON DANIEL M3M 10 M 62 9.92
83 00:41:47 1325 SAIDANI-BORIE CLAIRE SEF 9 F 21 9.91
84 00:42:07 1355 PEROTTI CHRISTIAN M2M 13 M 63 UNIVERSAL SEVENS 9.83
85 00:42:12 1317 PIEGELIN EVE SEF 10 F 22 9.81
86 00:42:16 1287 GRILL MIREILLE M4F 1 F 23 AIX ATHLE PROVENCE 9.79
87 00:42:18 1301 LEMOINE FLORIAN ESM 1 M 64 9.79
88 00:42:19 1376 LAHAYE ROMAIN ESM 2 M 65 9.78
89 00:42:22 1371 BEKKERS KANCHI M1F 8 F 24 9.77
90 00:42:22 1369 DIJOUX MARIANNE M1F 9 F 25 9.77
91 00:42:52 1363 VOJTA ALINE JUF 1 F 26 9.66
92 00:42:52 1389 VELLUCCI JONATHAN SEM 20 M 66 KM 42.195MARSEILLE 9.66
93 00:42:52 1251 ARAGON MAGALY M2F 4 F 27 MME/MLLE 9.66
94 00:43:50 1337 REVEILLET CHARLOTTE SEF 11 F 28 9.44
95 00:44:45 1305 MAYO AURELIE SEF 12 F 29 9.25
96 00:44:47 1253 BELLOTTO STEPHANIE M1F 10 F 30 POLE EMPLOI 9.24
97 00:44:50 1377 BEZIN FRANCE M2F 5 F 31 AIX ATHLE PROVENCE 9.23
98 00:44:52 1341 TISSOT PATRICE SEM 21 M 67 POMPIER LAMBESC 9.23
99 00:45:13 1331 TEISSEIRE CATHERINE SEF 13 F 32 SHAKASPORT/CMCA 9.16
100 00:45:23 1276 FADAT LIONEL SEM 22 M 68 9.12